Pointe-Lebel, Canada
Current Conditions -  °F | °C
As of 3:00 AM on Wednesday 22 Oct 2014 (Local Time) from CYBC Reporting Station
Clear Clear  
Wind Chill:   Ceiling: Unl
Heat Index:   Visibility: 9mi
Dew Point: -1°   Wind: 6mph
Humidity: 70%   Direction: 30°NNE
Pressure: 30.42"   Gusts: NA
Location:  49.15°N, 68.2°W
Report Text: CYBC 220700Z AUTO 03005KT 9SM CLR 04/M01 A3042 RMK SLP302
Loading
Personal Weather Stations






























Interactive Weather Map
Tropical Storm Tracking
New forecast layout! Learn more

10-Day Weather Forecast

Advertisements
Track Severe Weather on mobile